This is the latest recevied weather packets stored in our database for station/object N0EDB-13. If no packets are shown the sender has not sent any weather packets the latest 10 day(s).
| Time | Temp. | Humidity | Pressure | Rain* | Wind** | Luminosity | Snow |
|---|---|---|---|---|---|---|---|
| 1777873665 | 12.22° C | 41% | 1489.8 hPa | 0 mm | - | 0 W/m² | - |
| 1777873365 | 12.22° C | 40% | 1489.4 hPa | 0 mm | - | 0 W/m² | - |
| 1777873064 | 12.22° C | 40% | 1489.5 hPa | 0 mm | - | 0 W/m² | - |
| 1777872764 | 12.22° C | 42% | 1489.8 hPa | 0 mm | - | 0 W/m² | - |
| 1777872463 | 12.22° C | 41% | 1489.8 hPa | 0 mm | - | 0 W/m² | - |
| 1777872162 | 12.22° C | 40% | 1489.5 hPa | 0 mm | - | 0 W/m² | - |
| 1777871861 | 12.22° C | 40% | 1488.8 hPa | 0 mm | - | 0 W/m² | - |
| 1777871560 | 12.78° C | 39% | 1487.1 hPa | 0 mm | - | 0 W/m² | - |
| 1777871259 | 13.89° C | 37% | 1485 hPa | 0 mm | - | 0 W/m² | - |
| 1777870959 | 14.44° C | 36% | 1483.4 hPa | 0 mm | - | 0 W/m² | - |
| 1777870659 | 14.44° C | 35% | 1482.3 hPa | 0 mm | - | 0 W/m² | - |
| 1777870358 | 15° C | 34% | 1481.6 hPa | 0 mm | - | 0 W/m² | - |
| 1777870057 | 15° C | 33% | 1481 hPa | 0 mm | - | 0 W/m² | - |
| 1777869756 | 15° C | 32% | 1481 hPa | 0 mm | - | 0 W/m² | - |
| 1777869454 | 15° C | 32% | 1481.1 hPa | 0 mm | - | 0 W/m² | - |
| 1777869154 | 15° C | 31% | 1481.2 hPa | 0 mm | - | 0 W/m² | - |
| 1777868853 | 15° C | 32% | 1481.3 hPa | 0 mm | - | 0 W/m² | - |
| 1777868553 | 15° C | 32% | 1481 hPa | 0 mm | - | 0 W/m² | - |
| 1777868252 | 15.56° C | 33% | 1480.2 hPa | 0 mm | - | 0 W/m² | - |
| 1777867951 | 15.56° C | 32% | 1479 hPa | 0 mm | - | 0 W/m² | - |
| 1777867650 | 15.56° C | 31% | 1478.7 hPa | 0 mm | - | 0 W/m² | - |
| 1777867349 | 15.56° C | 31% | 1478.8 hPa | 0 mm | - | 0 W/m² | - |
| 1777867048 | 15.56° C | 32% | 1478.9 hPa | 0 mm | - | 0 W/m² | - |
| 1777866747 | 16.11° C | 34% | 1477.4 hPa | 0 mm | - | 0 W/m² | - |
| 1777866447 | 16.67° C | 29% | 1476 hPa | 0 mm | - | 0 W/m² | - |
* Rain latest hour (hover to see other rain measurements)
** Current wind speed in m/s (hover to see current wind gust speed)